Abbotsford Airport
CYXX : now visible

Airfield :











YOU CAN JOIN US ON...

 
LOGIN :

Register | Disclaimer

   EN    FR    IT 

 









Legend :    VFR   Marginal VFR   IFR   Intensive IFR   Very Intensive IFR
Visi :
Ceiling :
>= 8 km
>= 3000ft
5 to 8 km
1000 to 3000 ft
1500m to 5 km
500 to 1000 ft
800 to 1500m
200 to 500 ft
< 800m
< 200 ft
Symbols :   Thunderstorms  Fog  Heavy snow  Heavy precipitations  Wind > 20 kt






- Airport Elevation : 195 ft
- IATA code : YXX


CYXX - Abbotsford

CURRENT METAR :
  • 182000Z 22007KT 190V270 30SM SKC 21/07 A3014 RMK SLP207 DENSITY ALT 700FT

EXPIRED METARs :
  • 181900Z 20003KT 180V240 30SM SCT240 19/07 A3014 RMK CI3 SLP210 DENSITY ALT 500FT
  • 181800Z VRB03KT 30SM SCT240 18/05 A3015 RMK CI4 SLP213 DENSITY ALT 300FT

TAF TAF CYXX
Valid from the 18 at 18:00 until the 19 at 18:00 UTC


181738Z 1818/1918 VRB03KT P6SM SKC
BECMG 1819/1821 22010KT
FM190500 04015G25KT P6SM SCT080
TEMPO 1905/1908 BKN080
FM190800 04015G25KT P6SM SKC
BECMG 1916/1918 05012KT RMK NXT FCST BY 190000Z
CZVR FIR / North America



MET'MAP, your aeronautical weather chart ! - Copyright ORBIFLY December 2007 - Disclaimer

ORBIFLY MET'MAP TEAM :

Programming & Development : Alexandra Zaïnal
Concept & original design : Baudouin d'Aumeries
Assistance for programming : Marc-Olivier Méhu
Technical & hardware support : Manuel Goepfert

Contact : metmap@orbifly.com




SOURCES & CREDITS :

   NOAA       Earth
Advisory